createdAt,value
2018-07-14T00:01:51.283Z,18.84
2018-07-14T00:04:20.128Z,18.85
2018-07-14T00:06:47.851Z,18.82
2018-07-14T00:09:16.227Z,18.78
2018-07-14T00:11:43.888Z,18.77
2018-07-14T00:14:11.626Z,18.79
2018-07-14T00:16:39.636Z,18.81
2018-07-14T00:19:07.367Z,18.79
2018-07-14T00:21:35.069Z,18.83
2018-07-14T00:24:03.998Z,18.84
2018-07-14T00:26:31.704Z,18.81
2018-07-14T00:29:00.330Z,18.79
2018-07-14T00:31:29.253Z,18.74
2018-07-14T00:33:56.951Z,18.71
2018-07-14T00:36:24.658Z,18.70
2018-07-14T00:38:53.751Z,18.68
2018-07-14T00:41:21.457Z,18.66
2018-07-14T00:43:49.148Z,18.62
2018-07-14T00:46:17.175Z,18.60
2018-07-14T00:48:45.408Z,18.58
2018-07-14T00:51:13.080Z,18.56
2018-07-14T00:53:42.055Z,18.55
2018-07-14T00:56:09.717Z,18.52
2018-07-14T00:58:37.434Z,18.48
2018-07-14T01:01:06.267Z,18.48
2018-07-14T01:03:35.389Z,18.48
2018-07-14T01:06:03.090Z,18.47
2018-07-14T01:08:31.930Z,18.46
2018-07-14T01:10:59.602Z,18.45
2018-07-14T01:13:27.419Z,18.41
2018-07-14T01:15:55.411Z,18.37
2018-07-14T01:18:24.010Z,18.35
2018-07-14T01:20:51.724Z,18.32
2018-07-14T01:23:19.728Z,18.30
2018-07-14T01:25:47.428Z,18.28
2018-07-14T01:28:15.112Z,18.26
2018-07-14T01:30:42.806Z,18.24
2018-07-14T01:33:10.763Z,18.19
2018-07-14T01:35:38.701Z,18.16
2018-07-14T01:38:06.409Z,18.14
2018-07-14T01:40:34.107Z,18.11
2018-07-14T01:43:01.844Z,18.07
2018-07-14T01:45:29.566Z,18.03
2018-07-14T01:47:57.291Z,18.02
2018-07-14T01:50:25.303Z,18.04
2018-07-14T01:52:53.015Z,18.03
2018-07-14T01:55:20.738Z,18.03
2018-07-14T01:57:48.730Z,18.01
2018-07-14T02:00:16.447Z,17.98
2018-07-14T02:02:45.264Z,17.95
2018-07-14T02:05:13.234Z,17.88
2018-07-14T02:07:40.978Z,17.85
2018-07-14T02:10:08.710Z,17.83
2018-07-14T02:12:36.401Z,17.80
2018-07-14T02:15:04.402Z,17.78
2018-07-14T02:17:32.138Z,17.78
2018-07-14T02:20:00.078Z,17.79
2018-07-14T02:22:27.785Z,17.78
2018-07-14T02:24:55.482Z,17.76
2018-07-14T02:27:23.203Z,17.73
2018-07-14T02:29:51.216Z,17.72
2018-07-14T02:32:18.929Z,17.70
2018-07-14T02:34:46.630Z,17.70
2018-07-14T02:37:15.352Z,17.68
2018-07-14T02:39:43.399Z,17.66
2018-07-14T02:42:11.092Z,17.66
2018-07-14T02:44:38.803Z,17.64
2018-07-14T02:47:06.489Z,17.60
2018-07-14T02:49:34.505Z,17.58
2018-07-14T02:52:03.411Z,17.57
2018-07-14T02:54:33.130Z,17.57
2018-07-14T02:57:00.884Z,17.54
2018-07-14T02:59:28.877Z,17.53
2018-07-14T03:01:56.591Z,17.51
2018-07-14T03:04:24.304Z,17.53
2018-07-14T03:06:52.026Z,17.53
2018-07-14T03:09:20.799Z,17.51
2018-07-14T03:11:48.518Z,17.49
2018-07-14T03:14:16.246Z,17.46
2018-07-14T03:16:44.282Z,17.43
2018-07-14T03:19:11.969Z,17.39
2018-07-14T03:21:39.740Z,17.37
2018-07-14T03:24:07.454Z,17.32
2018-07-14T03:26:35.440Z,17.30
2018-07-14T03:29:03.146Z,17.28
2018-07-14T03:31:30.865Z,17.26
2018-07-14T03:33:58.562Z,17.26
2018-07-14T03:36:26.562Z,17.26
2018-07-14T03:38:54.257Z,17.24
2018-07-14T03:41:21.990Z,17.27
2018-07-14T03:43:49.991Z,17.27
2018-07-14T03:46:17.724Z,17.29
2018-07-14T03:48:45.473Z,17.25
2018-07-14T03:51:13.198Z,17.20
2018-07-14T03:53:41.184Z,17.18
2018-07-14T03:56:08.858Z,17.15
2018-07-14T03:58:36.562Z,17.12
2018-07-14T04:01:05.019Z,17.12
2018-07-14T04:03:32.987Z,17.08
2018-07-14T04:06:00.710Z,17.05
2018-07-14T04:08:28.396Z,17.04
2018-07-14T04:10:56.117Z,17.02
2018-07-14T04:13:24.305Z,17.04
2018-07-14T04:15:52.019Z,17.01
2018-07-14T04:18:19.743Z,16.99
2018-07-14T04:20:48.553Z,17.00
2018-07-14T04:23:16.292Z,16.99
2018-07-14T04:25:44.016Z,17.01
2018-07-14T04:28:12.008Z,17.00
2018-07-14T04:30:39.709Z,17.04
2018-07-14T04:33:07.382Z,17.07
2018-07-14T04:35:35.069Z,17.07
2018-07-14T04:38:03.075Z,17.12
2018-07-14T04:40:30.774Z,17.11
2018-07-14T04:42:58.500Z,17.12
2018-07-14T04:45:26.461Z,17.11
2018-07-14T04:47:54.159Z,17.07
2018-07-14T04:50:21.870Z,17.06
2018-07-14T04:52:49.598Z,17.10
2018-07-14T04:55:17.583Z,17.13
2018-07-14T04:57:45.305Z,17.18
2018-07-14T05:00:13.071Z,17.20
2018-07-14T05:02:40.778Z,17.25
2018-07-14T05:05:09.217Z,17.28
2018-07-14T05:07:36.922Z,17.31
2018-07-14T05:10:04.895Z,17.37
2018-07-14T05:12:33.789Z,17.37
2018-07-14T05:15:01.508Z,17.43
2018-07-14T05:17:29.185Z,17.46
2018-07-14T05:19:57.926Z,17.48
2018-07-14T05:22:25.647Z,17.54
2018-07-14T05:24:53.342Z,17.57
2018-07-14T05:27:21.299Z,17.59
2018-07-14T05:29:49.004Z,17.64
2018-07-14T05:32:16.661Z,17.67
2018-07-14T05:34:44.420Z,17.71
2018-07-14T05:37:12.451Z,17.74
2018-07-14T05:39:40.137Z,17.76
2018-07-14T05:42:07.863Z,17.81
2018-07-14T05:44:35.865Z,17.83
2018-07-14T05:47:03.551Z,17.88
2018-07-14T05:49:31.270Z,17.90
2018-07-14T05:51:59.291Z,17.95
2018-07-14T05:54:27.052Z,18.00
2018-07-14T05:56:56.241Z,18.08
2018-07-14T05:59:24.215Z,18.11
2018-07-14T06:01:51.927Z,18.16
2018-07-14T06:04:19.598Z,18.18
2018-07-14T06:06:47.565Z,18.25
2018-07-14T06:09:16.429Z,18.30
2018-07-14T06:11:44.174Z,18.36
2018-07-14T06:14:11.929Z,18.47
2018-07-14T06:16:39.624Z,18.55
2018-07-14T06:19:07.277Z,18.65
2018-07-14T06:21:35.249Z,18.75
2018-07-14T06:24:02.960Z,18.86
2018-07-14T06:26:30.782Z,18.93
2018-07-14T06:28:58.757Z,19.01
2018-07-14T06:31:26.451Z,19.10
2018-07-14T06:33:55.024Z,19.19
2018-07-14T06:36:23.055Z,19.29
2018-07-14T06:38:50.790Z,19.38
2018-07-14T06:41:18.506Z,19.47
2018-07-14T06:43:46.512Z,19.53
2018-07-14T06:46:14.210Z,19.59
2018-07-14T06:48:41.936Z,19.67
2018-07-14T06:51:09.906Z,19.76
2018-07-14T06:53:51.964Z,19.83
2018-07-14T06:56:27.134Z,19.88
2018-07-14T06:58:54.961Z,19.93
2018-07-14T07:01:24.214Z,19.98
2018-07-14T07:03:52.186Z,20.04
2018-07-14T07:06:20.043Z,20.11
2018-07-14T07:08:47.714Z,20.17
2018-07-14T07:11:15.728Z,20.25
2018-07-14T07:13:43.529Z,20.32
2018-07-14T07:16:11.223Z,20.39
2018-07-14T07:18:39.295Z,20.47
2018-07-14T07:21:06.995Z,20.53
2018-07-14T07:23:34.704Z,20.59
2018-07-14T07:26:02.666Z,20.66
2018-07-14T07:28:30.389Z,20.74
2018-07-14T07:30:58.080Z,20.79
2018-07-14T07:33:26.693Z,20.85
2018-07-14T07:35:54.429Z,20.91
2018-07-14T07:38:22.241Z,20.97
2018-07-14T07:40:51.552Z,21.04
2018-07-14T07:43:20.513Z,21.09
2018-07-14T07:45:48.195Z,21.13
2018-07-14T07:48:17.914Z,21.19
2018-07-14T07:50:45.620Z,21.24
2018-07-14T07:53:13.334Z,21.29
2018-07-14T07:55:41.512Z,21.36
2018-07-14T07:58:09.212Z,21.43
2018-07-14T08:00:38.048Z,21.50
2018-07-14T08:03:07.418Z,21.58
2018-07-14T08:05:35.257Z,21.62
2018-07-14T08:08:02.975Z,21.63
2018-07-14T08:10:31.149Z,21.66
2018-07-14T08:12:59.468Z,21.71
2018-07-14T08:15:27.162Z,21.77
2018-07-14T08:17:55.459Z,21.81
2018-07-14T08:20:24.814Z,21.85
2018-07-14T08:22:52.633Z,21.91
2018-07-14T08:25:20.670Z,21.95
2018-07-14T08:27:48.381Z,22.01
2018-07-14T08:30:16.229Z,22.09
2018-07-14T08:32:45.932Z,22.15
2018-07-14T08:35:16.490Z,22.23
2018-07-14T08:37:44.232Z,22.30
2018-07-14T08:40:12.246Z,22.37
2018-07-14T08:42:40.006Z,22.44
2018-07-14T08:45:07.714Z,22.51
2018-07-14T08:47:37.589Z,22.60
2018-07-14T08:50:07.630Z,22.69
2018-07-14T08:52:35.369Z,22.79
2018-07-14T08:55:04.702Z,22.87
2018-07-14T08:57:32.665Z,22.95
2018-07-14T09:00:00.399Z,23.00
2018-07-14T09:02:32.112Z,23.07
2018-07-14T09:05:00.421Z,23.14
2018-07-14T09:07:29.332Z,23.23
2018-07-14T09:09:57.402Z,23.30
2018-07-14T09:12:27.276Z,23.39
2018-07-14T09:14:56.737Z,23.46
2018-07-14T09:17:25.775Z,23.54
2018-07-14T09:19:53.472Z,23.56
2018-07-14T09:22:22.304Z,23.64
2018-07-14T09:24:52.172Z,23.73
2018-07-14T09:27:20.712Z,23.82
2018-07-14T09:29:51.254Z,23.90
2018-07-14T09:32:19.498Z,23.98
2018-07-14T09:34:50.208Z,24.06
2018-07-14T09:37:19.491Z,24.16
2018-07-14T09:39:47.543Z,24.23
2018-07-14T09:42:17.586Z,24.30
2018-07-14T09:44:46.255Z,24.38
2018-07-14T09:47:14.412Z,24.48
2018-07-14T09:49:44.664Z,24.55
2018-07-14T09:52:13.183Z,24.64
2018-07-14T09:54:42.303Z,24.71
2018-07-14T09:57:10.058Z,24.79
2018-07-14T10:41:40.783Z,26.12
2018-07-14T10:44:09.485Z,26.23
2018-07-14T10:46:37.624Z,26.34
2018-07-14T10:49:05.340Z,26.45
2018-07-14T10:51:34.048Z,26.58
2018-07-14T10:54:02.034Z,26.69
2018-07-14T10:56:32.708Z,26.79
2018-07-14T10:59:01.515Z,26.86
2018-07-14T11:01:31.372Z,26.93
2018-07-14T11:04:01.556Z,26.99
2018-07-14T11:06:29.258Z,27.01
2018-07-14T11:08:57.368Z,27.10
2018-07-14T11:11:25.729Z,27.19
2018-07-14T11:13:53.426Z,27.24
2018-07-14T11:16:22.610Z,27.29
2018-07-14T11:18:51.225Z,27.37
2018-07-14T11:21:19.382Z,27.38
2018-07-14T11:23:47.289Z,27.36
2018-07-14T11:26:14.909Z,27.32
2018-07-14T11:28:43.081Z,27.36
2018-07-14T11:31:11.495Z,27.45
2018-07-14T11:33:39.247Z,27.51
2018-07-14T11:36:08.255Z,27.56
2018-07-14T11:38:35.994Z,27.63
2018-07-14T11:41:03.734Z,27.70
2018-07-14T11:43:32.339Z,27.83
2018-07-14T11:46:04.051Z,27.89
2018-07-14T11:48:31.753Z,27.88
2018-07-14T11:50:59.750Z,27.81
2018-07-14T11:53:27.439Z,27.85
2018-07-14T11:55:55.147Z,27.93
2018-07-14T11:58:23.170Z,28.05
2018-07-14T12:00:50.917Z,28.20
2018-07-14T12:03:18.635Z,28.22
2018-07-14T12:05:47.804Z,28.24
2018-07-14T12:08:15.533Z,28.31
2018-07-14T12:10:49.593Z,28.34
2018-07-14T12:13:18.622Z,28.38
2018-07-14T12:15:47.184Z,28.39
2018-07-14T12:18:15.740Z,28.44
2018-07-14T12:20:44.288Z,28.50
2018-07-14T12:23:13.339Z,28.63
2018-07-14T12:25:41.683Z,28.74
2018-07-14T12:28:09.752Z,28.76
2018-07-14T12:30:37.500Z,28.75
2018-07-14T12:33:06.882Z,28.67
2018-07-14T12:35:36.319Z,28.62
2018-07-14T12:38:05.105Z,28.65
2018-07-14T12:40:34.290Z,28.78
2018-07-14T12:43:02.349Z,28.83
2018-07-14T12:45:30.097Z,28.89
2018-07-14T12:47:57.835Z,28.82
2018-07-14T12:50:26.322Z,28.72
2018-07-14T12:52:54.049Z,28.63
2018-07-14T12:55:21.726Z,28.59
2018-07-14T12:57:50.650Z,28.70
2018-07-14T13:00:18.352Z,28.84
2018-07-14T13:02:46.768Z,28.95
2018-07-14T13:05:14.791Z,29.13
2018-07-14T13:07:43.145Z,29.27
2018-07-14T13:10:12.297Z,29.39
2018-07-14T13:12:40.297Z,29.38
2018-07-14T13:15:09.174Z,29.42
2018-07-14T13:17:36.960Z,29.49
2018-07-14T13:20:06.566Z,29.60
2018-07-14T13:22:34.309Z,29.62
2018-07-14T13:25:03.457Z,29.55
2018-07-14T13:27:31.460Z,29.58
2018-07-14T13:29:59.253Z,29.68
2018-07-14T13:32:29.207Z,29.75
2018-07-14T13:34:58.370Z,29.81
2018-07-14T13:37:26.884Z,29.93
2018-07-14T13:39:54.615Z,30.01
2018-07-14T13:42:27.776Z,30.03
2018-07-14T13:44:58.614Z,30.14
2018-07-14T13:47:26.633Z,30.21
2018-07-14T13:49:54.609Z,30.25
2018-07-14T13:52:25.212Z,30.27
2018-07-14T13:54:53.713Z,30.32
2018-07-14T13:57:21.736Z,30.37
2018-07-14T13:59:53.395Z,30.32
2018-07-14T14:02:24.814Z,30.25
2018-07-14T14:04:56.683Z,30.19
2018-07-14T14:07:24.646Z,30.19
2018-07-14T14:09:53.054Z,30.16
2018-07-14T14:12:22.738Z,30.21
2018-07-14T14:14:52.130Z,30.35
2018-07-14T14:17:19.830Z,30.44
2018-07-14T14:19:48.933Z,30.44
2018-07-14T14:22:16.743Z,30.34
2018-07-14T14:24:46.312Z,30.34
2018-07-14T14:27:15.290Z,30.44
2018-07-14T14:29:43.014Z,30.56
2018-07-14T14:32:11.389Z,30.68
2018-07-14T14:34:39.425Z,30.83
2018-07-14T14:37:07.096Z,31.02
2018-07-14T14:39:35.430Z,31.06
2018-07-14T14:42:03.491Z,31.00
2018-07-14T14:44:31.197Z,31.03
2018-07-14T14:46:58.953Z,30.97
2018-07-14T14:49:27.057Z,30.71
2018-07-14T14:51:54.765Z,30.53
2018-07-14T14:54:23.358Z,30.53
2018-07-14T14:56:51.359Z,30.63
2018-07-14T14:59:19.060Z,30.69
2018-07-14T15:01:47.955Z,30.74
2018-07-14T15:04:16.784Z,30.77
2018-07-14T15:06:44.488Z,30.85
2018-07-14T15:09:12.793Z,30.91
2018-07-14T15:11:42.462Z,30.97
2018-07-14T15:14:11.236Z,31.00
2018-07-14T15:16:38.925Z,30.99
2018-07-14T15:19:06.911Z,31.05
2018-07-14T15:21:34.622Z,31.07
2018-07-14T15:27:20.102Z,31.24
2018-07-14T15:29:47.914Z,31.27
2018-07-14T15:32:15.676Z,31.30
2018-07-14T15:34:44.678Z,31.30
2018-07-14T15:37:13.225Z,31.13
2018-07-14T15:39:41.897Z,30.95
2018-07-14T15:42:11.127Z,30.72
2018-07-14T15:44:38.843Z,30.65
2018-07-14T15:47:07.643Z,30.71
2018-07-14T15:49:37.186Z,30.79
2018-07-14T15:52:08.164Z,30.86
2018-07-14T15:54:35.968Z,30.96
2018-07-14T15:57:06.281Z,31.04
2018-07-14T15:59:33.957Z,31.03
2018-07-14T16:02:01.657Z,31.03
2018-07-14T16:04:29.677Z,31.01
2018-07-14T16:06:57.410Z,31.04
2018-07-14T16:09:28.652Z,31.08
2018-07-14T16:11:56.896Z,31.05
2018-07-14T16:14:26.362Z,31.01
2018-07-14T16:16:54.348Z,31.01
2018-07-14T16:19:22.427Z,31.01
2018-07-14T16:21:50.204Z,30.96
2018-07-14T16:24:18.157Z,31.03
2018-07-14T16:26:46.242Z,31.05
2018-07-14T16:29:14.622Z,31.00
2018-07-14T16:31:42.387Z,31.01
2018-07-14T16:34:12.038Z,31.03
2018-07-14T16:36:39.742Z,31.00
2018-07-14T16:39:07.479Z,30.98
2018-07-14T16:41:35.687Z,31.01
2018-07-14T16:44:05.312Z,31.06
2018-07-14T16:46:33.259Z,31.08
2018-07-14T16:49:01.753Z,31.07
2018-07-14T16:51:29.486Z,31.03
2018-07-14T16:53:59.207Z,30.96
2018-07-14T16:56:31.781Z,30.89
2018-07-14T16:59:00.067Z,30.85
2018-07-14T17:01:28.556Z,30.88
2018-07-14T17:03:56.713Z,30.89
2018-07-14T17:06:27.659Z,30.89
2018-07-14T17:08:55.464Z,30.88
2018-07-14T17:11:23.559Z,30.90
2018-07-14T17:13:52.523Z,30.93
2018-07-14T17:16:24.005Z,30.99
2018-07-14T17:18:52.455Z,31.09
2018-07-14T17:21:20.171Z,31.16
2018-07-14T17:23:47.909Z,31.21
2018-07-14T17:26:16.351Z,31.24
2018-07-14T17:28:45.085Z,31.23
2018-07-14T17:31:12.991Z,31.25
2018-07-14T17:33:41.102Z,31.15
2018-07-14T17:36:14.868Z,31.07
2018-07-14T17:38:42.976Z,31.00
2018-07-14T17:43:43.669Z,30.98
2018-07-14T17:46:12.491Z,30.95
2018-07-14T17:48:40.382Z,30.94
2018-07-14T17:51:08.399Z,30.92
2018-07-14T17:53:38.009Z,30.92
2018-07-14T17:56:05.909Z,30.89
2018-07-14T17:58:35.558Z,30.85
2018-07-14T18:01:05.083Z,30.83
2018-07-14T18:03:35.219Z,30.78
2018-07-14T18:06:02.998Z,30.76
2018-07-14T18:08:32.145Z,30.75
2018-07-14T18:11:01.404Z,30.74
2018-07-14T18:13:29.306Z,30.70
2018-07-14T18:15:57.397Z,30.65
2018-07-14T18:18:25.099Z,30.58
2018-07-14T18:20:54.197Z,30.46
2018-07-14T18:23:22.436Z,30.32
2018-07-14T18:25:50.809Z,30.21
2018-07-14T18:28:18.600Z,30.01
2018-07-14T18:30:51.250Z,29.89
2018-07-14T18:33:22.982Z,29.78
2018-07-14T18:35:55.540Z,29.68
2018-07-14T18:38:24.393Z,29.54
2018-07-14T18:40:52.393Z,29.46
2018-07-14T18:43:20.737Z,29.29
2018-07-14T18:45:50.513Z,29.13
2018-07-14T18:48:25.481Z,28.99
2018-07-14T18:50:54.634Z,28.82
2018-07-14T18:53:24.550Z,28.68
2018-07-14T18:55:53.635Z,28.57
2018-07-14T18:58:25.649Z,28.45
2018-07-14T19:00:53.768Z,28.32
2018-07-14T19:03:24.810Z,28.25
2018-07-14T19:05:54.303Z,28.14
2018-07-14T19:08:27.586Z,27.99
2018-07-14T19:10:56.150Z,27.84
2018-07-14T19:13:24.183Z,27.72
2018-07-14T19:15:56.715Z,27.63
2018-07-14T19:18:24.959Z,27.55
2018-07-14T19:20:52.945Z,27.49
2018-07-14T19:23:21.223Z,27.43
2018-07-14T19:25:50.477Z,27.36
2018-07-14T19:28:18.578Z,27.30
2018-07-14T19:30:51.534Z,27.22
2018-07-14T19:33:21.914Z,27.12
2018-07-14T19:35:49.778Z,27.03
2018-07-14T19:38:19.777Z,26.92
2018-07-14T19:40:47.940Z,26.84
2018-07-14T19:43:17.134Z,26.73
2018-07-14T19:45:45.332Z,26.64
2018-07-14T19:48:13.914Z,26.55
2018-07-14T19:50:42.609Z,26.43
2018-07-14T19:53:13.086Z,26.31
2018-07-14T19:55:42.563Z,26.18
2018-07-14T19:58:10.746Z,26.09
2018-07-14T20:00:39.783Z,25.98
2018-07-14T20:03:07.970Z,25.86
2018-07-14T20:05:36.949Z,25.78
2018-07-14T20:08:07.285Z,25.69
2018-07-14T20:10:36.757Z,25.61
2018-07-14T20:13:09.422Z,25.50
2018-07-14T20:15:39.658Z,25.40
2018-07-14T20:18:08.579Z,25.31
2018-07-14T20:20:39.481Z,25.18
2018-07-14T20:23:07.318Z,25.07
2018-07-14T20:25:37.556Z,24.95
2018-07-14T20:28:07.546Z,24.82
2018-07-14T20:30:35.453Z,24.73
2018-07-14T20:33:03.466Z,24.60
2018-07-14T20:35:32.772Z,24.45
2018-07-14T20:38:16.457Z,24.29
2018-07-14T20:40:45.682Z,24.12
2018-07-14T20:43:14.402Z,23.97
2018-07-14T20:45:42.692Z,23.84
2018-07-14T20:48:11.195Z,23.74
2018-07-14T20:50:41.450Z,23.64
2018-07-14T20:53:09.911Z,23.53
2018-07-14T20:55:37.617Z,23.41
2018-07-14T20:58:08.451Z,23.30
2018-07-14T21:00:38.739Z,23.17
2018-07-14T21:03:10.474Z,23.06
2018-07-14T21:05:40.085Z,22.91
2018-07-14T21:08:10.390Z,22.77
2018-07-14T21:10:39.770Z,22.68
2018-07-14T21:13:08.491Z,22.57
2018-07-14T21:15:36.826Z,22.49
2018-07-14T21:18:05.707Z,22.41
2018-07-14T21:20:33.586Z,22.31
2018-07-14T21:23:01.859Z,22.25
2018-07-14T21:25:29.757Z,22.19
2018-07-14T21:28:02.308Z,22.13
2018-07-14T21:30:31.444Z,22.06
2018-07-14T21:33:01.862Z,21.99
2018-07-14T21:35:30.731Z,21.91
2018-07-14T21:38:03.323Z,21.83
2018-07-14T21:40:31.388Z,21.76
2018-07-14T21:42:59.660Z,21.69
2018-07-14T21:49:59.607Z,21.36
2018-07-14T21:52:27.808Z,21.27
2018-07-14T21:55:00.099Z,21.28
2018-07-14T21:57:29.300Z,21.24
2018-07-14T21:59:58.731Z,21.19
2018-07-14T22:02:27.241Z,21.13
2018-07-14T22:04:56.328Z,21.07
2018-07-14T22:07:25.153Z,21.01
2018-07-14T22:09:53.369Z,20.94
2018-07-14T22:12:21.174Z,20.88
2018-07-14T22:14:50.701Z,20.82
2018-07-14T22:17:21.688Z,20.78
2018-07-14T22:19:51.650Z,20.74
2018-07-14T22:22:20.739Z,20.70
2018-07-14T22:24:53.242Z,20.68
2018-07-14T22:27:22.164Z,20.65
2018-07-14T22:29:54.602Z,20.61
2018-07-14T22:32:22.363Z,20.57
2018-07-14T22:34:53.728Z,20.49
2018-07-14T22:37:22.605Z,20.42
2018-07-14T22:39:50.893Z,20.35
2018-07-14T22:42:19.165Z,20.31
2018-07-14T22:44:47.237Z,20.26
2018-07-14T22:47:14.966Z,20.19
2018-07-14T22:49:42.699Z,20.14
2018-07-14T22:52:14.432Z,20.10
2018-07-14T22:54:44.090Z,20.08
2018-07-14T22:57:12.928Z,20.02
2018-07-14T22:59:40.629Z,19.98
2018-07-14T23:02:09.215Z,19.92
2018-07-14T23:04:37.264Z,19.86
2018-07-14T23:07:04.953Z,19.80
2018-07-14T23:09:33.240Z,19.76
2018-07-14T23:12:02.576Z,19.72
2018-07-14T23:14:30.292Z,19.66
2018-07-14T23:16:57.978Z,19.60
2018-07-14T23:19:27.382Z,19.56
2018-07-14T23:21:55.069Z,19.53
2018-07-14T23:24:22.802Z,19.50
2018-07-14T23:26:51.855Z,19.47
2018-07-14T23:29:19.603Z,19.45
2018-07-14T23:31:47.271Z,19.46
2018-07-14T23:34:18.936Z,19.43
2018-07-14T23:36:47.577Z,19.35
2018-07-14T23:39:17.657Z,19.28
2018-07-14T23:41:45.875Z,19.21
2018-07-14T23:44:14.558Z,19.12
2018-07-14T23:46:42.283Z,19.03
2018-07-14T23:49:10.706Z,18.97
2018-07-14T23:51:39.274Z,18.88
2018-07-14T23:54:10.827Z,18.81
2018-07-14T23:56:38.514Z,18.77
2018-07-14T23:59:09.841Z,18.72
